Airfield :
LOGIN :

Register | Disclaimer

   EN    FR    IT 

 










Legend :    VFR   Marginal VFR   IFR   Intensive IFR   Very Intensive IFR
Visi :
Ceiling :
>= 8 km
>= 3000ft
5 to 8 km
1000 to 3000 ft
1500m to 5 km
500 to 1000 ft
800 to 1500m
200 to 500 ft
< 800m
< 200 ft
Symbols :   Thunderstorms  Fog  Heavy snow  Heavy precipitations  Wind > 20 kt
SIGMETs :     Misc.  Thunderstorms  Icing  Turbulence  Mountain Waves  Volcanic Ashes






- Airport Elevation : 681 ft
- IATA code : LBA


EGNM - Leeds Bradford

CURRENT METAR :
  • 282220Z 24016KT 9999 -SHRA FEW018 04/02 Q0994

EXPIRED METARs :
  • 282150Z 25018KT 9999 FEW016 03/01 Q0994
  • 282120Z 26015KT 9999 FEW015 04/02 Q0994
  • 282050Z 26017G29KT 9999 -SHRA FEW021 04/02 Q0994
  • 282020Z 26015G25KT 9999 FEW020 04/02 Q0994

TAF TAF EGNM
Valid from the 28 at 18:00 until the 29 at 18:00 UTC


281705Z 2818/2918 24015KT 9999 SCT014
TEMPO 2818/2918 26018G30KT
TEMPO 2818/2910 7000 SHRA
PROB30
TEMPO 2821/2909 4000 SHSN BKN004
PROB40
TEMPO 2914/2918 6000 RA BKN010
ATIS : +44 113 250 9696 (x2489)



MET'MAP, your aeronautical weather chart ! - Copyright ORBIFLY December 2007 - Disclaimer

ORBIFLY MET'MAP TEAM :

Programming & Development : Alexandra Zaïnal
Concept & original design : Baudouin d'Aumeries
Assistance for programming : Marc-Olivier Méhu
Technical & hardware support : Manuel Goepfert

Contact : metmap@orbifly.com




SOURCES & CREDITS :

   NOAA